sensor_id;sensor_type;location;lat;lon;timestamp;temperature;humidity
40291;DHT22;26000;48.304;13.626;2023-05-07T00:01:09;14.20;99.90
40291;DHT22;26000;48.304;13.626;2023-05-07T00:03:36;14.20;99.90
40291;DHT22;26000;48.304;13.626;2023-05-07T00:06:01;14.10;99.90
40291;DHT22;26000;48.304;13.626;2023-05-07T00:08:27;14.00;99.90
40291;DHT22;26000;48.304;13.626;2023-05-07T00:10:53;14.00;99.90
40291;DHT22;26000;48.304;13.626;2023-05-07T00:13:18;13.90;99.90
40291;DHT22;26000;48.304;13.626;2023-05-07T00:15:44;13.80;99.90
40291;DHT22;26000;48.304;13.626;2023-05-07T00:18:09;13.80;99.90
40291;DHT22;26000;48.304;13.626;2023-05-07T00:20:35;13.80;99.90
40291;DHT22;26000;48.304;13.626;2023-05-07T00:23:01;13.70;99.90
40291;DHT22;26000;48.304;13.626;2023-05-07T00:25:26;13.70;99.90
40291;DHT22;26000;48.304;13.626;2023-05-07T00:27:52;13.70;99.90
40291;DHT22;26000;48.304;13.626;2023-05-07T00:30:17;13.70;99.90
40291;DHT22;26000;48.304;13.626;2023-05-07T00:32:43;13.60;99.90
40291;DHT22;26000;48.304;13.626;2023-05-07T00:35:11;13.60;99.90
40291;DHT22;26000;48.304;13.626;2023-05-07T00:37:36;13.70;99.90
40291;DHT22;26000;48.304;13.626;2023-05-07T00:40:02;13.60;99.90
40291;DHT22;26000;48.304;13.626;2023-05-07T00:42:30;13.70;99.90
40291;DHT22;26000;48.304;13.626;2023-05-07T00:44:58;13.70;99.90
40291;DHT22;26000;48.304;13.626;2023-05-07T00:47:24;13.60;99.90
40291;DHT22;26000;48.304;13.626;2023-05-07T00:49:50;13.60;99.90
40291;DHT22;26000;48.304;13.626;2023-05-07T00:52:17;13.50;99.90
40291;DHT22;26000;48.304;13.626;2023-05-07T00:54:45;13.40;99.90
40291;DHT22;26000;48.304;13.626;2023-05-07T00:57:11;13.30;99.90
40291;DHT22;26000;48.304;13.626;2023-05-07T00:59:37;13.40;99.90
40291;DHT22;26000;48.304;13.626;2023-05-07T01:02:02;13.40;99.90
40291;DHT22;26000;48.304;13.626;2023-05-07T01:04:29;13.50;99.90
40291;DHT22;26000;48.304;13.626;2023-05-07T01:06:55;13.50;99.90
40291;DHT22;26000;48.304;13.626;2023-05-07T01:09:23;13.50;99.90
40291;DHT22;26000;48.304;13.626;2023-05-07T01:11:50;13.50;99.90
40291;DHT22;26000;48.304;13.626;2023-05-07T01:14:17;13.60;99.90
40291;DHT22;26000;48.304;13.626;2023-05-07T01:16:43;13.60;99.90
40291;DHT22;26000;48.304;13.626;2023-05-07T01:19:10;13.60;99.90
40291;DHT22;26000;48.304;13.626;2023-05-07T01:21:37;13.50;99.90
40291;DHT22;26000;48.304;13.626;2023-05-07T01:24:04;13.50;99.90
40291;DHT22;26000;48.304;13.626;2023-05-07T01:26:31;13.60;99.90
40291;DHT22;26000;48.304;13.626;2023-05-07T01:28:56;13.50;99.90
40291;DHT22;26000;48.304;13.626;2023-05-07T01:31:23;13.50;99.90
40291;DHT22;26000;48.304;13.626;2023-05-07T01:33:50;13.50;99.90
40291;DHT22;26000;48.304;13.626;2023-05-07T01:36:17;13.50;99.90
40291;DHT22;26000;48.304;13.626;2023-05-07T01:38:44;13.50;99.90
40291;DHT22;26000;48.304;13.626;2023-05-07T01:41:11;13.50;99.90
40291;DHT22;26000;48.304;13.626;2023-05-07T01:43:37;13.50;99.90
40291;DHT22;26000;48.304;13.626;2023-05-07T01:46:03;13.50;99.90
40291;DHT22;26000;48.304;13.626;2023-05-07T01:48:29;13.40;99.90
40291;DHT22;26000;48.304;13.626;2023-05-07T01:50:56;13.40;99.90
40291;DHT22;26000;48.304;13.626;2023-05-07T01:53:21;13.40;99.90
40291;DHT22;26000;48.304;13.626;2023-05-07T01:55:47;13.40;99.90
40291;DHT22;26000;48.304;13.626;2023-05-07T01:58:12;13.30;99.90
40291;DHT22;26000;48.304;13.626;2023-05-07T02:00:38;13.30;99.90
40291;DHT22;26000;48.304;13.626;2023-05-07T02:03:04;13.30;99.90
40291;DHT22;26000;48.304;13.626;2023-05-07T02:05:30;13.20;99.90
40291;DHT22;26000;48.304;13.626;2023-05-07T02:07:56;13.20;99.90
40291;DHT22;26000;48.304;13.626;2023-05-07T02:10:22;13.20;99.90
40291;DHT22;26000;48.304;13.626;2023-05-07T02:12:47;13.00;99.90
40291;DHT22;26000;48.304;13.626;2023-05-07T02:15:13;13.00;99.90
40291;DHT22;26000;48.304;13.626;2023-05-07T02:18:01;13.00;99.90
40291;DHT22;26000;48.304;13.626;2023-05-07T02:20:27;13.00;99.90
40291;DHT22;26000;48.304;13.626;2023-05-07T02:22:52;12.90;99.90
40291;DHT22;26000;48.304;13.626;2023-05-07T02:25:18;12.90;99.90
40291;DHT22;26000;48.304;13.626;2023-05-07T02:27:44;12.80;99.90
40291;DHT22;26000;48.304;13.626;2023-05-07T02:30:10;12.80;99.90
40291;DHT22;26000;48.304;13.626;2023-05-07T02:32:35;12.90;99.90
40291;DHT22;26000;48.304;13.626;2023-05-07T02:35:01;12.90;99.90
40291;DHT22;26000;48.304;13.626;2023-05-07T02:37:26;13.00;99.90
40291;DHT22;26000;48.304;13.626;2023-05-07T02:39:52;13.00;99.90
40291;DHT22;26000;48.304;13.626;2023-05-07T02:42:18;13.00;99.90
40291;DHT22;26000;48.304;13.626;2023-05-07T02:44:43;12.90;99.90
40291;DHT22;26000;48.304;13.626;2023-05-07T02:47:09;12.90;99.90
40291;DHT22;26000;48.304;13.626;2023-05-07T02:49:35;12.90;99.90
40291;DHT22;26000;48.304;13.626;2023-05-07T02:52:01;12.90;99.90
40291;DHT22;26000;48.304;13.626;2023-05-07T02:54:26;12.80;99.90
40291;DHT22;26000;48.304;13.626;2023-05-07T02:56:52;12.80;99.90
40291;DHT22;26000;48.304;13.626;2023-05-07T02:59:18;12.90;99.90
40291;DHT22;26000;48.304;13.626;2023-05-07T03:01:43;12.80;99.90
40291;DHT22;26000;48.304;13.626;2023-05-07T03:04:10;12.80;99.90
40291;DHT22;26000;48.304;13.626;2023-05-07T03:06:36;12.90;99.90
40291;DHT22;26000;48.304;13.626;2023-05-07T03:09:02;12.80;99.90
40291;DHT22;26000;48.304;13.626;2023-05-07T03:11:28;12.80;99.90
40291;DHT22;26000;48.304;13.626;2023-05-07T03:13:54;12.80;99.90
40291;DHT22;26000;48.304;13.626;2023-05-07T03:16:19;12.90;99.90
40291;DHT22;26000;48.304;13.626;2023-05-07T03:18:45;12.90;99.90
40291;DHT22;26000;48.304;13.626;2023-05-07T03:21:11;12.90;99.90
40291;DHT22;26000;48.304;13.626;2023-05-07T03:23:36;12.90;99.90
40291;DHT22;26000;48.304;13.626;2023-05-07T03:26:02;12.90;99.90
40291;DHT22;26000;48.304;13.626;2023-05-07T03:28:28;12.90;99.90
40291;DHT22;26000;48.304;13.626;2023-05-07T03:30:53;12.90;99.90
40291;DHT22;26000;48.304;13.626;2023-05-07T03:33:19;12.90;99.90
40291;DHT22;26000;48.304;13.626;2023-05-07T03:35:44;12.90;99.90
40291;DHT22;26000;48.304;13.626;2023-05-07T03:38:11;12.90;99.90
40291;DHT22;26000;48.304;13.626;2023-05-07T03:40:37;12.90;99.90
40291;DHT22;26000;48.304;13.626;2023-05-07T03:43:02;12.90;99.90
40291;DHT22;26000;48.304;13.626;2023-05-07T03:45:28;12.80;99.90
40291;DHT22;26000;48.304;13.626;2023-05-07T03:47:53;12.90;99.90
40291;DHT22;26000;48.304;13.626;2023-05-07T03:50:19;12.80;99.90
40291;DHT22;26000;48.304;13.626;2023-05-07T03:52:45;12.90;99.90
40291;DHT22;26000;48.304;13.626;2023-05-07T03:55:11;12.90;99.90
40291;DHT22;26000;48.304;13.626;2023-05-07T03:57:36;12.90;99.90
40291;DHT22;26000;48.304;13.626;2023-05-07T04:00:02;12.90;99.90
40291;DHT22;26000;48.304;13.626;2023-05-07T04:02:29;13.00;99.90
40291;DHT22;26000;48.304;13.626;2023-05-07T04:04:55;13.10;99.90
40291;DHT22;26000;48.304;13.626;2023-05-07T04:07:22;13.30;99.90
40291;DHT22;26000;48.304;13.626;2023-05-07T04:09:47;13.50;99.90
40291;DHT22;26000;48.304;13.626;2023-05-07T04:12:13;13.60;99.90
40291;DHT22;26000;48.304;13.626;2023-05-07T04:14:38;13.70;99.90
40291;DHT22;26000;48.304;13.626;2023-05-07T04:17:04;13.80;99.90
40291;DHT22;26000;48.304;13.626;2023-05-07T04:19:33;14.10;99.90
40291;DHT22;26000;48.304;13.626;2023-05-07T04:21:59;14.70;99.90
40291;DHT22;26000;48.304;13.626;2023-05-07T04:24:24;15.10;99.90
40291;DHT22;26000;48.304;13.626;2023-05-07T04:26:50;15.30;99.90
40291;DHT22;26000;48.304;13.626;2023-05-07T04:29:16;15.10;99.90
40291;DHT22;26000;48.304;13.626;2023-05-07T04:31:42;14.90;99.90
40291;DHT22;26000;48.304;13.626;2023-05-07T04:34:10;14.60;99.90
40291;DHT22;26000;48.304;13.626;2023-05-07T04:36:37;14.30;99.90
40291;DHT22;26000;48.304;13.626;2023-05-07T04:39:03;14.10;99.90
40291;DHT22;26000;48.304;13.626;2023-05-07T04:41:29;14.00;99.90
40291;DHT22;26000;48.304;13.626;2023-05-07T04:43:55;14.00;99.90
40291;DHT22;26000;48.304;13.626;2023-05-07T04:46:22;13.90;99.90
40291;DHT22;26000;48.304;13.626;2023-05-07T04:48:49;13.90;99.90
40291;DHT22;26000;48.304;13.626;2023-05-07T04:51:14;13.80;99.90
40291;DHT22;26000;48.304;13.626;2023-05-07T04:53:40;13.80;99.90
40291;DHT22;26000;48.304;13.626;2023-05-07T04:56:06;13.80;99.90
40291;DHT22;26000;48.304;13.626;2023-05-07T04:58:31;13.90;99.90
40291;DHT22;26000;48.304;13.626;2023-05-07T05:00:58;14.00;99.90
40291;DHT22;26000;48.304;13.626;2023-05-07T05:03:24;14.00;99.90
40291;DHT22;26000;48.304;13.626;2023-05-07T05:05:51;14.10;99.90
40291;DHT22;26000;48.304;13.626;2023-05-07T05:08:17;14.20;99.90
40291;DHT22;26000;48.304;13.626;2023-05-07T05:10:43;14.30;99.90
40291;DHT22;26000;48.304;13.626;2023-05-07T05:13:09;14.40;99.90
40291;DHT22;26000;48.304;13.626;2023-05-07T05:15:35;14.50;99.90
40291;DHT22;26000;48.304;13.626;2023-05-07T05:18:00;14.60;99.90
40291;DHT22;26000;48.304;13.626;2023-05-07T05:20:26;14.70;99.90
40291;DHT22;26000;48.304;13.626;2023-05-07T05:22:52;14.90;99.90
40291;DHT22;26000;48.304;13.626;2023-05-07T05:25:17;14.80;99.90
40291;DHT22;26000;48.304;13.626;2023-05-07T05:27:43;14.90;99.90
40291;DHT22;26000;48.304;13.626;2023-05-07T05:30:09;15.00;99.90
40291;DHT22;26000;48.304;13.626;2023-05-07T05:32:35;15.10;99.90
40291;DHT22;26000;48.304;13.626;2023-05-07T05:35:00;15.30;99.90
40291;DHT22;26000;48.304;13.626;2023-05-07T05:37:26;15.50;99.90
40291;DHT22;26000;48.304;13.626;2023-05-07T05:39:52;15.50;99.90
40291;DHT22;26000;48.304;13.626;2023-05-07T05:42:20;15.60;99.90
40291;DHT22;26000;48.304;13.626;2023-05-07T05:44:45;15.60;99.90
40291;DHT22;26000;48.304;13.626;2023-05-07T05:47:11;15.70;99.90
40291;DHT22;26000;48.304;13.626;2023-05-07T05:49:36;15.70;99.90
40291;DHT22;26000;48.304;13.626;2023-05-07T05:52:02;15.80;99.90
40291;DHT22;26000;48.304;13.626;2023-05-07T05:54:28;15.90;99.90
40291;DHT22;26000;48.304;13.626;2023-05-07T05:56:54;16.00;99.90
40291;DHT22;26000;48.304;13.626;2023-05-07T05:59:19;16.20;99.90
40291;DHT22;26000;48.304;13.626;2023-05-07T06:01:45;16.50;99.90
40291;DHT22;26000;48.304;13.626;2023-05-07T06:04:11;16.70;99.90
40291;DHT22;26000;48.304;13.626;2023-05-07T06:06:36;16.90;99.90
40291;DHT22;26000;48.304;13.626;2023-05-07T06:09:02;17.10;99.90
40291;DHT22;26000;48.304;13.626;2023-05-07T06:11:28;17.10;99.90
40291;DHT22;26000;48.304;13.626;2023-05-07T06:13:53;17.40;99.90
40291;DHT22;26000;48.304;13.626;2023-05-07T06:16:19;17.50;99.90
40291;DHT22;26000;48.304;13.626;2023-05-07T06:18:44;17.60;99.90
40291;DHT22;26000;48.304;13.626;2023-05-07T06:21:12;17.80;99.90
40291;DHT22;26000;48.304;13.626;2023-05-07T06:23:38;17.90;99.90
40291;DHT22;26000;48.304;13.626;2023-05-07T06:26:06;18.00;99.90
40291;DHT22;26000;48.304;13.626;2023-05-07T06:28:32;18.30;99.90
40291;DHT22;26000;48.304;13.626;2023-05-07T06:31:17;18.50;99.90
40291;DHT22;26000;48.304;13.626;2023-05-07T06:33:46;18.80;99.90
40291;DHT22;26000;48.304;13.626;2023-05-07T06:36:11;19.10;99.90
40291;DHT22;26000;48.304;13.626;2023-05-07T06:38:37;19.50;99.90
40291;DHT22;26000;48.304;13.626;2023-05-07T06:41:02;19.70;99.90
40291;DHT22;26000;48.304;13.626;2023-05-07T06:43:28;19.80;99.90
40291;DHT22;26000;48.304;13.626;2023-05-07T06:45:54;19.80;99.90
40291;DHT22;26000;48.304;13.626;2023-05-07T06:48:19;19.90;99.90
40291;DHT22;26000;48.304;13.626;2023-05-07T06:50:45;19.60;99.90
40291;DHT22;26000;48.304;13.626;2023-05-07T06:53:11;19.50;99.90
40291;DHT22;26000;48.304;13.626;2023-05-07T06:55:36;19.30;99.90
40291;DHT22;26000;48.304;13.626;2023-05-07T06:58:03;19.40;99.90
40291;DHT22;26000;48.304;13.626;2023-05-07T07:00:29;19.40;99.90
40291;DHT22;26000;48.304;13.626;2023-05-07T07:02:55;19.30;99.90
40291;DHT22;26000;48.304;13.626;2023-05-07T07:05:21;19.50;99.90
40291;DHT22;26000;48.304;13.626;2023-05-07T07:07:46;19.70;99.90
40291;DHT22;26000;48.304;13.626;2023-05-07T07:10:21;19.70;99.90
40291;DHT22;26000;48.304;13.626;2023-05-07T07:12:48;19.70;99.90
40291;DHT22;26000;48.304;13.626;2023-05-07T07:15:14;19.70;99.90
40291;DHT22;26000;48.304;13.626;2023-05-07T07:17:40;19.80;99.90
40291;DHT22;26000;48.304;13.626;2023-05-07T07:20:06;19.70;99.90
40291;DHT22;26000;48.304;13.626;2023-05-07T07:22:32;19.90;99.90
40291;DHT22;26000;48.304;13.626;2023-05-07T07:24:57;20.20;99.90
40291;DHT22;26000;48.304;13.626;2023-05-07T07:27:23;20.40;99.90
40291;DHT22;26000;48.304;13.626;2023-05-07T07:29:49;20.60;99.90
40291;DHT22;26000;48.304;13.626;2023-05-07T07:32:15;20.90;99.90
40291;DHT22;26000;48.304;13.626;2023-05-07T07:34:41;21.10;99.90
40291;DHT22;26000;48.304;13.626;2023-05-07T07:37:06;21.20;99.90
40291;DHT22;26000;48.304;13.626;2023-05-07T07:39:33;21.20;99.90
40291;DHT22;26000;48.304;13.626;2023-05-07T07:41:59;21.40;99.90
40291;DHT22;26000;48.304;13.626;2023-05-07T07:44:25;21.50;99.90
40291;DHT22;26000;48.304;13.626;2023-05-07T07:46:51;21.30;99.90
40291;DHT22;26000;48.304;13.626;2023-05-07T07:49:16;21.00;99.90
40291;DHT22;26000;48.304;13.626;2023-05-07T07:51:42;21.30;99.90
40291;DHT22;26000;48.304;13.626;2023-05-07T07:54:08;21.50;99.90
40291;DHT22;26000;48.304;13.626;2023-05-07T07:56:34;21.30;99.90
40291;DHT22;26000;48.304;13.626;2023-05-07T07:59:00;21.30;99.90
40291;DHT22;26000;48.304;13.626;2023-05-07T08:01:26;21.70;99.90
40291;DHT22;26000;48.304;13.626;2023-05-07T08:03:52;21.90;99.90
40291;DHT22;26000;48.304;13.626;2023-05-07T08:06:18;22.20;99.90
40291;DHT22;26000;48.304;13.626;2023-05-07T08:08:44;22.40;99.90
40291;DHT22;26000;48.304;13.626;2023-05-07T08:11:09;22.40;99.90
40291;DHT22;26000;48.304;13.626;2023-05-07T08:13:36;22.30;99.90
40291;DHT22;26000;48.304;13.626;2023-05-07T08:16:02;22.10;99.90
40291;DHT22;26000;48.304;13.626;2023-05-07T08:18:27;22.10;99.90
40291;DHT22;26000;48.304;13.626;2023-05-07T08:20:54;22.40;99.90
40291;DHT22;26000;48.304;13.626;2023-05-07T08:23:20;22.40;99.90
40291;DHT22;26000;48.304;13.626;2023-05-07T08:25:46;22.20;99.90
40291;DHT22;26000;48.304;13.626;2023-05-07T08:28:12;22.20;99.90
40291;DHT22;26000;48.304;13.626;2023-05-07T08:30:37;22.10;99.90
40291;DHT22;26000;48.304;13.626;2023-05-07T08:33:03;22.30;99.90
40291;DHT22;26000;48.304;13.626;2023-05-07T08:35:37;22.00;99.90
40291;DHT22;26000;48.304;13.626;2023-05-07T08:38:06;21.90;99.90
40291;DHT22;26000;48.304;13.626;2023-05-07T08:40:36;22.00;99.90
40291;DHT22;26000;48.304;13.626;2023-05-07T08:43:03;21.70;99.90
40291;DHT22;26000;48.304;13.626;2023-05-07T08:45:30;22.00;99.90
40291;DHT22;26000;48.304;13.626;2023-05-07T08:48:02;22.50;99.90
40291;DHT22;26000;48.304;13.626;2023-05-07T08:50:29;22.70;99.90
40291;DHT22;26000;48.304;13.626;2023-05-07T08:52:55;22.80;99.90
40291;DHT22;26000;48.304;13.626;2023-05-07T08:55:22;22.30;99.90
40291;DHT22;26000;48.304;13.626;2023-05-07T08:57:48;21.90;99.90
40291;DHT22;26000;48.304;13.626;2023-05-07T09:00:14;21.90;99.90
40291;DHT22;26000;48.304;13.626;2023-05-07T09:02:40;22.00;99.90
40291;DHT22;26000;48.304;13.626;2023-05-07T09:05:08;22.20;99.90
40291;DHT22;26000;48.304;13.626;2023-05-07T09:07:34;22.40;99.90
40291;DHT22;26000;48.304;13.626;2023-05-07T09:10:04;22.40;99.90
40291;DHT22;26000;48.304;13.626;2023-05-07T09:12:30;22.60;99.90
40291;DHT22;26000;48.304;13.626;2023-05-07T09:14:56;22.70;99.90
40291;DHT22;26000;48.304;13.626;2023-05-07T09:17:22;22.80;99.90
40291;DHT22;26000;48.304;13.626;2023-05-07T09:19:47;22.80;99.90
40291;DHT22;26000;48.304;13.626;2023-05-07T09:22:13;23.00;99.90
40291;DHT22;26000;48.304;13.626;2023-05-07T09:24:39;23.00;99.90
40291;DHT22;26000;48.304;13.626;2023-05-07T09:27:06;22.80;99.90
40291;DHT22;26000;48.304;13.626;2023-05-07T09:29:32;22.80;99.90
40291;DHT22;26000;48.304;13.626;2023-05-07T09:32:07;22.50;99.90
40291;DHT22;26000;48.304;13.626;2023-05-07T09:34:33;22.50;99.90
40291;DHT22;26000;48.304;13.626;2023-05-07T09:37:01;22.60;99.90
40291;DHT22;26000;48.304;13.626;2023-05-07T09:39:45;22.30;99.90
40291;DHT22;26000;48.304;13.626;2023-05-07T09:42:12;22.30;99.90
40291;DHT22;26000;48.304;13.626;2023-05-07T09:44:40;22.40;99.90
40291;DHT22;26000;48.304;13.626;2023-05-07T09:47:07;22.40;99.90
40291;DHT22;26000;48.304;13.626;2023-05-07T09:49:36;22.70;99.90
40291;DHT22;26000;48.304;13.626;2023-05-07T09:52:04;22.70;99.90
40291;DHT22;26000;48.304;13.626;2023-05-07T09:54:34;22.80;99.90
40291;DHT22;26000;48.304;13.626;2023-05-07T09:57:05;22.90;99.90
40291;DHT22;26000;48.304;13.626;2023-05-07T09:59:33;22.90;99.90
40291;DHT22;26000;48.304;13.626;2023-05-07T10:02:00;23.20;99.90
40291;DHT22;26000;48.304;13.626;2023-05-07T10:04:26;23.30;99.90
40291;DHT22;26000;48.304;13.626;2023-05-07T10:06:53;23.50;99.90
40291;DHT22;26000;48.304;13.626;2023-05-07T10:09:21;23.20;99.50
40291;DHT22;26000;48.304;13.626;2023-05-07T10:11:49;23.30;99.40
40291;DHT22;26000;48.304;13.626;2023-05-07T10:14:15;23.40;99.80
40291;DHT22;26000;48.304;13.626;2023-05-07T10:16:42;23.20;99.90
40291;DHT22;26000;48.304;13.626;2023-05-07T10:19:08;23.00;99.70
40291;DHT22;26000;48.304;13.626;2023-05-07T10:21:38;23.00;99.90
40291;DHT22;26000;48.304;13.626;2023-05-07T10:24:16;22.70;99.90
40291;DHT22;26000;48.304;13.626;2023-05-07T10:26:48;22.80;99.90
40291;DHT22;26000;48.304;13.626;2023-05-07T10:29:39;22.90;99.90
40291;DHT22;26000;48.304;13.626;2023-05-07T10:32:42;23.10;99.90
40291;DHT22;26000;48.304;13.626;2023-05-07T10:35:21;22.90;99.00
40291;DHT22;26000;48.304;13.626;2023-05-07T10:37:48;22.80;99.90
40291;DHT22;26000;48.304;13.626;2023-05-07T10:40:17;22.60;99.40
40291;DHT22;26000;48.304;13.626;2023-05-07T10:42:58;22.50;99.80
40291;DHT22;26000;48.304;13.626;2023-05-07T10:45:25;22.60;99.90
40291;DHT22;26000;48.304;13.626;2023-05-07T10:50:36;22.70;99.90
40291;DHT22;26000;48.304;13.626;2023-05-07T10:55:50;22.70;99.90
40291;DHT22;26000;48.304;13.626;2023-05-07T10:58:30;22.70;99.60
40291;DHT22;26000;48.304;13.626;2023-05-07T11:01:03;22.70;99.10
40291;DHT22;26000;48.304;13.626;2023-05-07T11:03:29;22.90;99.60
40291;DHT22;26000;48.304;13.626;2023-05-07T11:06:15;22.90;99.40
40291;DHT22;26000;48.304;13.626;2023-05-07T11:11:19;23.20;98.70
40291;DHT22;26000;48.304;13.626;2023-05-07T11:13:47;23.00;98.40
40291;DHT22;26000;48.304;13.626;2023-05-07T11:16:23;23.10;98.90
40291;DHT22;26000;48.304;13.626;2023-05-07T11:18:54;23.00;98.70
40291;DHT22;26000;48.304;13.626;2023-05-07T11:23:59;22.70;98.60
40291;DHT22;26000;48.304;13.626;2023-05-07T11:26:25;22.80;98.50
40291;DHT22;26000;48.304;13.626;2023-05-07T11:28:51;22.80;96.50
40291;DHT22;26000;48.304;13.626;2023-05-07T11:31:22;22.80;96.90
40291;DHT22;26000;48.304;13.626;2023-05-07T11:33:48;22.70;97.20
40291;DHT22;26000;48.304;13.626;2023-05-07T11:36:15;22.80;97.10
40291;DHT22;26000;48.304;13.626;2023-05-07T11:38:41;22.70;96.90
40291;DHT22;26000;48.304;13.626;2023-05-07T11:41:07;22.70;95.50
40291;DHT22;26000;48.304;13.626;2023-05-07T11:43:33;22.60;96.60
40291;DHT22;26000;48.304;13.626;2023-05-07T11:46:09;22.40;96.80
40291;DHT22;26000;48.304;13.626;2023-05-07T11:48:35;22.50;97.60
40291;DHT22;26000;48.304;13.626;2023-05-07T11:51:03;22.70;96.70
40291;DHT22;26000;48.304;13.626;2023-05-07T11:53:38;22.50;97.30
40291;DHT22;26000;48.304;13.626;2023-05-07T11:56:12;22.50;97.20
40291;DHT22;26000;48.304;13.626;2023-05-07T11:58:39;22.40;96.00
40291;DHT22;26000;48.304;13.626;2023-05-07T12:01:08;22.40;94.20
40291;DHT22;26000;48.304;13.626;2023-05-07T12:03:39;22.30;93.60
40291;DHT22;26000;48.304;13.626;2023-05-07T12:06:08;22.30;95.70
40291;DHT22;26000;48.304;13.626;2023-05-07T12:08:36;22.20;94.80
40291;DHT22;26000;48.304;13.626;2023-05-07T12:11:03;22.30;94.80
40291;DHT22;26000;48.304;13.626;2023-05-07T12:13:29;22.40;94.70
40291;DHT22;26000;48.304;13.626;2023-05-07T12:15:57;22.50;95.10
40291;DHT22;26000;48.304;13.626;2023-05-07T12:18:23;22.50;95.00
40291;DHT22;26000;48.304;13.626;2023-05-07T12:20:50;22.70;95.90
40291;DHT22;26000;48.304;13.626;2023-05-07T12:23:16;22.70;95.20
40291;DHT22;26000;48.304;13.626;2023-05-07T12:25:43;22.80;94.50
40291;DHT22;26000;48.304;13.626;2023-05-07T12:28:16;22.90;94.50
40291;DHT22;26000;48.304;13.626;2023-05-07T12:30:49;22.70;94.90
40291;DHT22;26000;48.304;13.626;2023-05-07T12:33:23;22.90;95.00
40291;DHT22;26000;48.304;13.626;2023-05-07T12:35:49;23.00;95.10
40291;DHT22;26000;48.304;13.626;2023-05-07T12:38:17;22.90;94.60
40291;DHT22;26000;48.304;13.626;2023-05-07T12:40:49;23.10;94.10
40291;DHT22;26000;48.304;13.626;2023-05-07T12:43:19;23.10;93.60
40291;DHT22;26000;48.304;13.626;2023-05-07T12:45:47;23.10;93.30
40291;DHT22;26000;48.304;13.626;2023-05-07T12:48:13;23.00;93.50
40291;DHT22;26000;48.304;13.626;2023-05-07T12:50:39;23.00;94.00
40291;DHT22;26000;48.304;13.626;2023-05-07T12:53:06;23.10;91.40
40291;DHT22;26000;48.304;13.626;2023-05-07T12:55:44;23.10;91.90
40291;DHT22;26000;48.304;13.626;2023-05-07T12:58:18;23.00;93.20
40291;DHT22;26000;48.304;13.626;2023-05-07T13:00:45;23.00;94.10
40291;DHT22;26000;48.304;13.626;2023-05-07T13:03:30;22.90;94.40
40291;DHT22;26000;48.304;13.626;2023-05-07T13:05:58;22.90;94.40
40291;DHT22;26000;48.304;13.626;2023-05-07T13:08:35;22.80;94.80
40291;DHT22;26000;48.304;13.626;2023-05-07T13:11:03;22.90;95.00
40291;DHT22;26000;48.304;13.626;2023-05-07T13:13:31;22.90;94.60
40291;DHT22;26000;48.304;13.626;2023-05-07T13:15:57;22.90;95.00
40291;DHT22;26000;48.304;13.626;2023-05-07T13:18:25;22.80;94.60
40291;DHT22;26000;48.304;13.626;2023-05-07T13:20:51;22.80;94.90
40291;DHT22;26000;48.304;13.626;2023-05-07T13:23:17;22.80;94.90
40291;DHT22;26000;48.304;13.626;2023-05-07T13:25:42;22.90;95.50
40291;DHT22;26000;48.304;13.626;2023-05-07T13:28:08;23.00;95.50
40291;DHT22;26000;48.304;13.626;2023-05-07T13:30:33;23.00;95.30
40291;DHT22;26000;48.304;13.626;2023-05-07T13:33:00;23.00;95.80
40291;DHT22;26000;48.304;13.626;2023-05-07T13:35:26;22.80;95.60
40291;DHT22;26000;48.304;13.626;2023-05-07T13:37:51;23.00;96.30
40291;DHT22;26000;48.304;13.626;2023-05-07T13:40:18;23.00;95.80
40291;DHT22;26000;48.304;13.626;2023-05-07T13:42:44;22.80;95.20
40291;DHT22;26000;48.304;13.626;2023-05-07T13:45:10;22.70;95.20
40291;DHT22;26000;48.304;13.626;2023-05-07T13:47:36;22.80;95.10
40291;DHT22;26000;48.304;13.626;2023-05-07T13:50:01;22.70;94.80
40291;DHT22;26000;48.304;13.626;2023-05-07T13:52:27;22.80;95.20
40291;DHT22;26000;48.304;13.626;2023-05-07T13:54:53;22.90;94.70
40291;DHT22;26000;48.304;13.626;2023-05-07T13:57:18;22.90;94.80
40291;DHT22;26000;48.304;13.626;2023-05-07T13:59:44;22.80;95.40
40291;DHT22;26000;48.304;13.626;2023-05-07T14:02:10;22.90;95.50
40291;DHT22;26000;48.304;13.626;2023-05-07T14:04:36;22.70;95.10
40291;DHT22;26000;48.304;13.626;2023-05-07T14:07:02;22.70;95.00
40291;DHT22;26000;48.304;13.626;2023-05-07T14:09:28;22.60;95.70
40291;DHT22;26000;48.304;13.626;2023-05-07T14:11:54;22.60;95.50
40291;DHT22;26000;48.304;13.626;2023-05-07T14:14:19;22.50;94.90
40291;DHT22;26000;48.304;13.626;2023-05-07T14:16:45;22.60;95.00
40291;DHT22;26000;48.304;13.626;2023-05-07T14:19:14;22.70;95.10
40291;DHT22;26000;48.304;13.626;2023-05-07T14:21:39;22.70;95.30
40291;DHT22;26000;48.304;13.626;2023-05-07T14:24:07;22.80;95.10
40291;DHT22;26000;48.304;13.626;2023-05-07T14:26:35;22.90;95.20
40291;DHT22;26000;48.304;13.626;2023-05-07T14:29:01;22.80;95.70
40291;DHT22;26000;48.304;13.626;2023-05-07T14:31:27;22.70;95.80
40291;DHT22;26000;48.304;13.626;2023-05-07T14:33:53;22.50;96.00
40291;DHT22;26000;48.304;13.626;2023-05-07T14:36:19;22.30;96.40
40291;DHT22;26000;48.304;13.626;2023-05-07T14:38:46;22.30;97.10
40291;DHT22;26000;48.304;13.626;2023-05-07T14:41:12;22.30;96.60
40291;DHT22;26000;48.304;13.626;2023-05-07T14:43:38;22.30;96.80
40291;DHT22;26000;48.304;13.626;2023-05-07T14:46:04;22.30;96.80
40291;DHT22;26000;48.304;13.626;2023-05-07T14:48:29;22.10;97.40
40291;DHT22;26000;48.304;13.626;2023-05-07T14:50:55;22.10;97.60
40291;DHT22;26000;48.304;13.626;2023-05-07T14:53:21;22.10;98.00
40291;DHT22;26000;48.304;13.626;2023-05-07T14:55:47;22.00;97.80
40291;DHT22;26000;48.304;13.626;2023-05-07T14:58:13;22.00;97.60
40291;DHT22;26000;48.304;13.626;2023-05-07T15:00:39;22.00;97.60
40291;DHT22;26000;48.304;13.626;2023-05-07T15:03:09;21.90;97.40
40291;DHT22;26000;48.304;13.626;2023-05-07T15:05:36;22.00;96.90
40291;DHT22;26000;48.304;13.626;2023-05-07T15:08:02;21.90;96.70
40291;DHT22;26000;48.304;13.626;2023-05-07T15:10:28;22.00;96.80
40291;DHT22;26000;48.304;13.626;2023-05-07T15:12:54;21.90;97.20
40291;DHT22;26000;48.304;13.626;2023-05-07T15:15:19;21.90;96.80
40291;DHT22;26000;48.304;13.626;2023-05-07T15:17:45;21.90;97.50
40291;DHT22;26000;48.304;13.626;2023-05-07T15:20:11;21.90;97.30
40291;DHT22;26000;48.304;13.626;2023-05-07T15:22:36;22.00;97.20
40291;DHT22;26000;48.304;13.626;2023-05-07T15:25:04;22.00;97.00